createdAt,value
2022-10-17T00:00:58.016Z,5.45
2022-10-17T00:03:24.822Z,5.93
2022-10-17T00:05:51.558Z,6.13
2022-10-17T00:08:19.624Z,5.40
2022-10-17T00:10:54.727Z,5.22
2022-10-17T00:13:21.512Z,4.82
2022-10-17T00:15:48.252Z,5.30
2022-10-17T00:18:15.041Z,5.63
2022-10-17T00:20:41.756Z,5.60
2022-10-17T00:23:08.493Z,6.00
2022-10-17T00:25:35.391Z,5.38
2022-10-17T00:28:02.373Z,5.00
2022-10-17T00:30:29.104Z,5.50
2022-10-17T00:32:56.055Z,4.90
2022-10-17T00:35:22.726Z,4.82
2022-10-17T00:37:49.461Z,4.85
2022-10-17T00:40:16.188Z,4.72
2022-10-17T00:42:42.946Z,5.53
2022-10-17T00:45:39.122Z,5.07
2022-10-17T00:48:10.896Z,5.30
2022-10-17T00:50:42.602Z,5.55
2022-10-17T00:53:10.742Z,5.72
2022-10-17T00:55:47.128Z,5.60
2022-10-17T00:58:14.010Z,6.10
2022-10-17T01:00:42.993Z,6.03
2022-10-17T01:03:09.727Z,5.97
2022-10-17T01:05:38.108Z,6.15
2022-10-17T01:08:05.064Z,5.55
2022-10-17T01:10:50.308Z,6.00
2022-10-17T01:13:38.787Z,5.50
2022-10-17T01:16:26.575Z,5.50
2022-10-17T01:19:10.876Z,5.97
2022-10-17T01:22:00.937Z,5.35
2022-10-17T01:24:48.087Z,5.15
2022-10-17T01:28:10.330Z,5.80
2022-10-17T01:30:51.217Z,5.55
2022-10-17T01:33:43.272Z,5.93
2022-10-17T01:36:47.686Z,5.68
2022-10-17T01:39:47.756Z,5.40
2022-10-17T01:42:33.415Z,6.03
2022-10-17T01:45:23.045Z,6.05
2022-10-17T01:47:52.850Z,5.95
2022-10-17T01:50:36.168Z,6.63
2022-10-17T01:53:14.620Z,5.95
2022-10-17T01:55:45.714Z,6.07
2022-10-17T01:58:29.993Z,6.38
2022-10-17T02:01:02.982Z,5.85
2022-10-17T02:03:32.306Z,5.90
2022-10-17T02:05:58.998Z,5.43
2022-10-17T02:08:49.216Z,5.13
2022-10-17T02:11:25.941Z,4.80
2022-10-17T02:14:36.820Z,4.75
2022-10-17T02:17:19.626Z,4.70
2022-10-17T02:20:01.264Z,4.80
2022-10-17T02:22:49.624Z,4.32
2022-10-17T02:25:51.459Z,4.80
2022-10-17T02:28:33.792Z,4.80
2022-10-17T02:31:25.751Z,5.47
2022-10-17T02:34:02.597Z,5.40
2022-10-17T02:36:40.973Z,4.70
2022-10-17T02:39:11.226Z,4.75
2022-10-17T02:41:40.905Z,5.00
2022-10-17T02:44:10.124Z,5.13
2022-10-17T02:46:40.995Z,5.30
2022-10-17T02:49:31.351Z,6.32
2022-10-17T02:52:22.282Z,5.78
2022-10-17T02:55:00.190Z,5.80
2022-10-17T02:57:45.153Z,5.85
2022-10-17T03:00:15.279Z,5.85
2022-10-17T03:02:46.254Z,5.55
2022-10-17T03:05:26.643Z,5.85
2022-10-17T03:07:55.565Z,5.65
2022-10-17T03:10:22.755Z,5.82
2022-10-17T03:12:49.696Z,5.68
2022-10-17T03:15:16.590Z,5.38
2022-10-17T03:17:43.336Z,5.47
2022-10-17T03:20:11.681Z,5.55
2022-10-17T03:22:38.384Z,5.85
2022-10-17T03:25:05.444Z,5.43
2022-10-17T03:27:32.421Z,5.82
2022-10-17T03:29:59.294Z,5.32
2022-10-17T03:32:26.074Z,5.97
2022-10-17T03:34:52.749Z,5.45
2022-10-17T03:37:19.442Z,5.85
2022-10-17T03:39:46.141Z,5.20
2022-10-17T03:42:12.842Z,4.88
2022-10-17T03:44:39.575Z,5.65
2022-10-17T03:47:09.192Z,4.68
2022-10-17T03:49:38.751Z,5.22
2022-10-17T03:52:05.519Z,5.25
2022-10-17T03:54:32.298Z,5.80
2022-10-17T03:56:59.011Z,5.28
2022-10-17T03:59:25.693Z,5.03
2022-10-17T04:01:52.443Z,5.63
2022-10-17T04:04:19.181Z,4.65
2022-10-17T04:06:45.918Z,6.00
2022-10-17T04:09:12.799Z,4.75
2022-10-17T04:11:39.860Z,5.63
2022-10-17T04:14:06.605Z,5.80
2022-10-17T04:16:33.337Z,5.30
2022-10-17T04:19:00.705Z,5.45
2022-10-17T04:21:29.328Z,5.43
2022-10-17T04:24:00.720Z,5.40
2022-10-17T04:26:27.785Z,5.43
2022-10-17T04:28:54.512Z,5.50
2022-10-17T04:31:21.451Z,5.38
2022-10-17T04:33:50.222Z,5.70
2022-10-17T04:36:19.825Z,5.75
2022-10-17T04:38:47.169Z,5.60
2022-10-17T04:41:17.941Z,5.47
2022-10-17T04:43:48.541Z,5.57
2022-10-17T04:46:18.113Z,5.47
2022-10-17T04:48:45.161Z,5.10
2022-10-17T04:51:15.488Z,5.40
2022-10-17T04:53:44.071Z,5.40
2022-10-17T04:56:18.340Z,5.85
2022-10-17T04:58:46.465Z,5.63
2022-10-17T05:01:20.151Z,6.35
2022-10-17T05:03:48.056Z,5.30
2022-10-17T05:06:21.575Z,6.07
2022-10-17T05:08:48.548Z,5.70
2022-10-17T05:11:28.429Z,6.60
2022-10-17T05:14:01.032Z,6.68
2022-10-17T05:16:29.252Z,6.28
2022-10-17T05:18:58.579Z,6.55
2022-10-17T05:21:27.576Z,6.30
2022-10-17T05:23:54.748Z,6.85
2022-10-17T05:26:23.450Z,7.03
2022-10-17T05:28:52.420Z,6.80
2022-10-17T05:31:19.580Z,6.30
2022-10-17T05:33:46.430Z,6.40
2022-10-17T05:36:13.344Z,6.53
2022-10-17T05:38:40.031Z,6.30
2022-10-17T05:41:06.877Z,6.43
2022-10-17T05:43:34.792Z,5.82
2022-10-17T05:46:06.754Z,6.38
2022-10-17T05:48:33.967Z,5.88
2022-10-17T05:51:08.742Z,6.70
2022-10-17T05:53:39.517Z,6.00
2022-10-17T05:56:09.972Z,7.30
2022-10-17T05:59:00.743Z,7.07
2022-10-17T06:01:27.840Z,6.60
2022-10-17T06:03:54.732Z,5.72
2022-10-17T06:06:21.492Z,6.13
2022-10-17T06:08:48.199Z,5.85
2022-10-17T06:11:15.039Z,6.07
2022-10-17T06:13:42.163Z,5.90
2022-10-17T06:16:08.926Z,5.43
2022-10-17T06:18:35.810Z,5.18
2022-10-17T06:21:05.694Z,5.97
2022-10-17T06:23:32.898Z,6.38
2022-10-17T06:26:05.977Z,5.75
2022-10-17T06:28:33.752Z,6.47
2022-10-17T06:31:12.137Z,6.60
2022-10-17T06:33:39.496Z,6.57
2022-10-17T06:36:08.031Z,7.38
2022-10-17T06:38:35.962Z,7.30
2022-10-17T06:41:08.384Z,7.43
2022-10-17T06:43:37.537Z,7.10
2022-10-17T06:46:05.198Z,7.93
2022-10-17T06:48:33.227Z,7.13
2022-10-17T06:51:05.858Z,7.25
2022-10-17T06:53:34.968Z,7.20
2022-10-17T06:56:04.218Z,7.30
2022-10-17T06:58:34.317Z,5.90
2022-10-17T07:01:03.476Z,6.22
2022-10-17T07:03:30.847Z,6.10
2022-10-17T07:05:58.716Z,6.35
2022-10-17T07:08:26.575Z,5.93
2022-10-17T07:10:53.582Z,6.20
2022-10-17T07:13:20.770Z,6.78
2022-10-17T07:15:47.784Z,6.30
2022-10-17T07:18:14.941Z,5.65
2022-10-17T07:20:41.682Z,5.93
2022-10-17T07:23:08.448Z,5.38
2022-10-17T07:25:39.393Z,5.38
2022-10-17T07:28:07.045Z,5.35
2022-10-17T07:30:33.813Z,5.63
2022-10-17T07:33:00.520Z,5.57
2022-10-17T07:35:27.272Z,5.10
2022-10-17T07:37:53.997Z,5.25
2022-10-17T07:40:20.776Z,4.95
2022-10-17T07:42:47.580Z,5.00
2022-10-17T07:45:15.572Z,4.57
2022-10-17T07:47:42.617Z,4.15
2022-10-17T07:50:10.008Z,4.78
2022-10-17T07:52:36.833Z,4.03
2022-10-17T07:55:03.940Z,4.60
2022-10-17T07:57:30.647Z,4.07
2022-10-17T07:59:57.376Z,4.35
2022-10-17T08:02:26.751Z,4.20
2022-10-17T08:04:54.382Z,4.10
2022-10-17T08:07:26.823Z,3.85
2022-10-17T08:09:56.049Z,3.42
2022-10-17T08:12:24.237Z,4.30
2022-10-17T08:14:50.936Z,3.67
2022-10-17T08:17:17.788Z,4.03
2022-10-17T08:19:44.488Z,5.05
2022-10-17T08:22:11.343Z,4.03
2022-10-17T08:24:38.051Z,3.50
2022-10-17T08:27:11.163Z,3.55
2022-10-17T08:29:39.116Z,3.10
2022-10-17T08:32:09.605Z,4.30
2022-10-17T08:34:36.639Z,3.75
2022-10-17T08:37:03.855Z,3.80
2022-10-17T08:39:30.666Z,3.45
2022-10-17T08:42:03.325Z,4.00
2022-10-17T08:44:41.876Z,3.20
2022-10-17T08:47:16.407Z,2.97
2022-10-17T08:49:57.229Z,3.08
2022-10-17T08:52:39.989Z,4.05
2022-10-17T08:55:27.625Z,3.40
2022-10-17T08:57:54.349Z,3.10
2022-10-17T09:00:22.433Z,3.03
2022-10-17T09:03:14.213Z,3.50
2022-10-17T09:05:56.151Z,3.65
2022-10-17T09:08:53.482Z,3.00
2022-10-17T09:11:50.215Z,3.00
2022-10-17T09:15:23.459Z,3.20
2022-10-17T09:18:26.519Z,3.13
2022-10-17T09:21:26.028Z,3.63
2022-10-17T09:24:09.402Z,3.25
2022-10-17T09:26:40.151Z,3.08
2022-10-17T09:29:22.360Z,3.08
2022-10-17T09:32:25.767Z,3.17
2022-10-17T09:34:53.945Z,3.42
2022-10-17T09:37:32.534Z,3.13
2022-10-17T09:39:59.313Z,3.22
2022-10-17T09:42:28.363Z,3.30
2022-10-17T09:45:16.632Z,2.97
2022-10-17T09:48:01.759Z,3.40
2022-10-17T09:50:34.010Z,3.40
2022-10-17T09:53:27.371Z,3.30
2022-10-17T09:55:58.837Z,3.10
2022-10-17T09:58:45.594Z,3.17
2022-10-17T10:01:31.718Z,2.97
2022-10-17T10:04:19.258Z,3.40
2022-10-17T10:07:12.255Z,3.42
2022-10-17T10:09:40.211Z,3.45
2022-10-17T10:12:20.539Z,2.95
2022-10-17T10:14:50.464Z,3.22
2022-10-17T10:17:37.204Z,3.00
2022-10-17T10:20:34.119Z,3.47
2022-10-17T10:23:18.504Z,3.08
2022-10-17T10:25:59.041Z,3.10
2022-10-17T10:28:33.099Z,3.17
2022-10-17T10:31:06.398Z,3.58
2022-10-17T10:33:41.802Z,2.90
2022-10-17T10:36:09.877Z,2.83
2022-10-17T10:38:42.417Z,2.97
2022-10-17T10:41:11.637Z,2.80
2022-10-17T10:43:50.745Z,3.03
2022-10-17T10:46:37.755Z,3.15
2022-10-17T10:49:04.677Z,3.40
2022-10-17T10:51:44.355Z,3.00
2022-10-17T10:54:28.670Z,3.65
2022-10-17T10:57:00.288Z,3.15
2022-10-17T10:59:56.510Z,3.03
2022-10-17T11:02:42.400Z,3.08
2022-10-17T11:05:21.676Z,2.97
2022-10-17T11:08:00.136Z,3.10
2022-10-17T11:11:23.842Z,2.90
2022-10-17T11:14:34.361Z,3.15
2022-10-17T11:17:22.977Z,3.40
2022-10-17T11:20:11.408Z,2.80
2022-10-17T11:23:10.603Z,3.05
2022-10-17T11:25:40.859Z,3.00
2022-10-17T11:28:18.130Z,3.22
2022-10-17T11:31:04.521Z,3.10
2022-10-17T11:33:48.760Z,3.25
2022-10-17T11:36:21.475Z,3.05
2022-10-17T11:38:56.357Z,2.67
2022-10-17T11:41:34.300Z,2.80
2022-10-17T11:44:19.009Z,2.90
2022-10-17T11:46:51.219Z,2.90
2022-10-17T11:49:41.026Z,2.80
2022-10-17T11:52:51.268Z,2.95
2022-10-17T11:55:26.518Z,2.85
2022-10-17T11:58:02.335Z,2.92
2022-10-17T12:00:52.572Z,3.00
2022-10-17T12:03:57.057Z,2.95
2022-10-17T12:06:51.205Z,2.80
2022-10-17T12:09:50.627Z,3.08
2022-10-17T12:12:27.618Z,3.00
2022-10-17T12:15:23.369Z,2.78
2022-10-17T12:18:03.827Z,2.70
2022-10-17T12:20:36.792Z,3.10
2022-10-17T12:23:12.508Z,3.08
2022-10-17T12:26:05.436Z,3.10
2022-10-17T12:28:52.773Z,3.20
2022-10-17T12:31:21.634Z,3.05
2022-10-17T12:34:03.978Z,3.30
2022-10-17T12:36:30.721Z,3.40
2022-10-17T12:39:03.646Z,2.80
2022-10-17T12:41:39.458Z,3.10
2022-10-17T12:44:15.621Z,2.95
2022-10-17T12:46:58.595Z,2.72
2022-10-17T12:49:47.737Z,2.60
2022-10-17T12:52:31.599Z,3.03
2022-10-17T12:55:18.351Z,3.00
2022-10-17T12:58:08.140Z,2.95
2022-10-17T13:01:18.852Z,2.85
2022-10-17T13:03:48.885Z,2.95
2022-10-17T13:06:22.862Z,3.00
2022-10-17T13:09:04.202Z,3.22
2022-10-17T13:11:36.179Z,2.72
2022-10-17T13:14:14.918Z,3.00
2022-10-17T13:16:51.242Z,3.10
2022-10-17T13:19:23.402Z,3.00
2022-10-17T13:22:06.519Z,3.15
2022-10-17T13:24:36.536Z,2.92
2022-10-17T13:27:06.650Z,3.05
2022-10-17T13:29:33.822Z,3.10
2022-10-17T13:32:04.148Z,2.50
2022-10-17T13:34:33.695Z,2.95
2022-10-17T13:37:05.487Z,2.92
2022-10-17T13:40:02.932Z,3.10
2022-10-17T13:42:39.380Z,3.08
2022-10-17T13:45:32.220Z,2.63
2022-10-17T13:48:04.688Z,3.20
2022-10-17T13:50:44.042Z,3.30
2022-10-17T13:53:32.841Z,3.00
2022-10-17T13:56:29.269Z,2.80
2022-10-17T13:59:22.850Z,3.38
2022-10-17T14:01:52.060Z,3.42
2022-10-17T14:04:20.489Z,3.40
2022-10-17T14:06:49.590Z,3.00
2022-10-17T14:09:32.116Z,3.30
2022-10-17T14:12:12.672Z,3.53
2022-10-17T14:15:09.240Z,3.45
2022-10-17T14:17:36.027Z,3.40
2022-10-17T14:20:26.586Z,4.03
2022-10-17T14:23:20.849Z,2.95
2022-10-17T14:25:40.925Z,3.10
2022-10-17T14:28:09.457Z,3.22
2022-10-17T14:30:57.169Z,3.03
2022-10-17T14:33:33.381Z,3.38
2022-10-17T14:36:04.000Z,3.50
2022-10-17T14:38:31.562Z,3.25
2022-10-17T14:41:41.836Z,3.47
2022-10-17T14:44:36.307Z,3.20
2022-10-17T14:47:31.154Z,3.33
2022-10-17T14:50:28.309Z,3.08
2022-10-17T14:53:18.725Z,3.75
2022-10-17T14:56:02.696Z,3.55
2022-10-17T14:58:33.094Z,3.45
2022-10-17T15:01:01.770Z,3.47
2022-10-17T15:03:28.772Z,3.38
2022-10-17T15:05:55.943Z,3.70
2022-10-17T15:08:24.441Z,3.30
2022-10-17T15:10:51.840Z,3.40
2022-10-17T15:13:40.978Z,3.17
2022-10-17T15:16:30.706Z,3.63
2022-10-17T15:18:57.870Z,3.92
2022-10-17T15:21:39.174Z,3.30
2022-10-17T15:24:08.773Z,7.07
2022-10-17T15:26:35.831Z,4.05
2022-10-17T15:29:03.232Z,4.93
2022-10-17T15:31:33.689Z,5.10
2022-10-17T15:34:00.468Z,5.38
2022-10-17T15:36:35.808Z,6.05
2022-10-17T15:39:02.812Z,5.07
2022-10-17T15:41:32.255Z,3.97
2022-10-17T15:44:00.177Z,3.67
2022-10-17T15:46:32.528Z,3.75
2022-10-17T15:49:07.606Z,4.00
2022-10-17T15:51:34.460Z,3.35
2022-10-17T15:54:01.915Z,3.85
2022-10-17T15:56:32.242Z,4.45
2022-10-17T15:59:01.269Z,3.72
2022-10-17T16:01:31.461Z,5.40
2022-10-17T16:03:59.324Z,3.78
2022-10-17T16:06:26.967Z,4.35
2022-10-17T16:08:53.774Z,3.53
2022-10-17T16:11:40.089Z,3.47
2022-10-17T16:14:16.828Z,3.65
2022-10-17T16:16:44.535Z,3.20
2022-10-17T16:19:12.738Z,3.10
2022-10-17T16:21:41.368Z,3.10
2022-10-17T16:24:14.844Z,3.33
2022-10-17T16:26:41.880Z,2.88
2022-10-17T16:29:10.041Z,2.90
2022-10-17T16:31:42.182Z,2.70
2022-10-17T16:34:13.220Z,3.65
2022-10-17T16:36:40.703Z,4.72
2022-10-17T16:39:08.427Z,4.60
2022-10-17T16:41:39.902Z,3.35
2022-10-17T16:44:16.406Z,4.20
2022-10-17T16:46:43.176Z,3.67
2022-10-17T16:49:10.304Z,2.50
2022-10-17T16:51:37.087Z,2.95
2022-10-17T16:54:04.620Z,2.70
2022-10-17T16:56:32.889Z,3.15
2022-10-17T16:59:01.329Z,3.13
2022-10-17T17:01:31.218Z,2.97
2022-10-17T17:03:58.454Z,3.10
2022-10-17T17:06:30.139Z,3.50
2022-10-17T17:08:57.906Z,3.00
2022-10-17T17:11:28.413Z,3.08
2022-10-17T17:13:57.907Z,3.40
2022-10-17T17:16:26.879Z,3.20
2022-10-17T17:19:00.694Z,3.33
2022-10-17T17:21:27.965Z,3.42
2022-10-17T17:24:01.299Z,3.20
2022-10-17T17:26:32.782Z,3.10
2022-10-17T17:29:00.740Z,3.03
2022-10-17T17:31:32.419Z,3.47
2022-10-17T17:33:59.823Z,3.78
2022-10-17T17:36:33.332Z,3.40
2022-10-17T17:39:03.590Z,4.22
2022-10-17T17:41:30.562Z,4.18
2022-10-17T17:43:57.811Z,4.90
2022-10-17T17:46:25.575Z,5.35
2022-10-17T17:48:54.836Z,5.70
2022-10-17T17:51:28.367Z,6.30
2022-10-17T17:53:57.219Z,3.45
2022-10-17T17:56:27.828Z,3.20
2022-10-17T17:59:01.701Z,3.72
2022-10-17T18:01:31.903Z,3.50
2022-10-17T18:03:59.402Z,3.25
2022-10-17T18:06:27.431Z,3.30
2022-10-17T18:08:58.921Z,3.50
2022-10-17T18:11:27.645Z,3.75
2022-10-17T18:14:01.977Z,3.38
2022-10-17T18:16:30.608Z,3.45
2022-10-17T18:19:02.627Z,3.05
2022-10-17T18:21:32.996Z,3.20
2022-10-17T18:24:00.165Z,3.72
2022-10-17T18:26:27.614Z,3.67
2022-10-17T18:28:54.562Z,3.80
2022-10-17T18:31:26.245Z,3.50
2022-10-17T18:34:00.119Z,4.05
2022-10-17T18:36:29.348Z,3.90
2022-10-17T18:38:56.681Z,3.58
2022-10-17T18:41:26.219Z,4.05
2022-10-17T18:43:55.025Z,4.13
2022-10-17T18:46:25.130Z,4.03
2022-10-17T18:48:52.395Z,4.20
2022-10-17T18:51:23.781Z,4.45
2022-10-17T18:53:54.694Z,4.32
2022-10-17T18:56:23.091Z,4.30
2022-10-17T18:58:50.506Z,5.20
2022-10-17T19:01:20.834Z,5.10
2022-10-17T19:03:49.953Z,5.57
2022-10-17T19:06:24.795Z,5.22
2022-10-17T19:08:51.557Z,5.07
2022-10-17T19:11:25.434Z,6.95
2022-10-17T19:13:53.651Z,6.18
2022-10-17T19:16:33.831Z,7.07
2022-10-17T19:19:05.479Z,6.68
2022-10-17T19:21:32.972Z,5.57
2022-10-17T19:24:03.324Z,6.20
2022-10-17T19:26:33.116Z,6.25
2022-10-17T19:29:00.545Z,7.43
2022-10-17T19:31:31.515Z,9.35
2022-10-17T19:33:58.892Z,7.65
2022-10-17T19:36:32.458Z,8.10
2022-10-17T19:39:03.773Z,8.10
2022-10-17T19:41:30.880Z,8.63
2022-10-17T19:43:59.545Z,8.15
2022-10-17T19:46:29.147Z,7.00
2022-10-17T19:48:56.383Z,7.68
2022-10-17T19:51:25.046Z,6.82
2022-10-17T19:53:54.921Z,7.35
2022-10-17T19:56:23.840Z,6.20
2022-10-17T19:58:51.726Z,6.72
2022-10-17T20:01:26.078Z,6.40
2022-10-17T20:03:54.121Z,6.78
2022-10-17T20:06:22.235Z,6.60
2022-10-17T20:08:49.879Z,6.78
2022-10-17T20:11:24.160Z,6.72
2022-10-17T20:13:52.067Z,6.60
2022-10-17T20:16:23.995Z,6.35
2022-10-17T20:18:54.501Z,5.03
2022-10-17T20:21:27.349Z,5.93
2022-10-17T20:23:54.740Z,5.72
2022-10-17T20:26:33.623Z,6.07
2022-10-17T20:29:08.826Z,6.03
2022-10-17T20:31:36.421Z,6.65
2022-10-17T20:34:03.509Z,6.70
2022-10-17T20:36:30.270Z,6.93
2022-10-17T20:38:59.070Z,7.07
2022-10-17T20:41:26.674Z,7.45
2022-10-17T20:43:55.203Z,7.55
2022-10-17T20:46:36.481Z,7.28
2022-10-17T20:49:06.531Z,6.70
2022-10-17T20:51:34.832Z,7.43
2022-10-17T20:54:02.540Z,7.97
2022-10-17T20:56:31.888Z,6.97
2022-10-17T20:59:02.671Z,7.70
2022-10-17T21:01:32.525Z,8.07
2022-10-17T21:04:09.421Z,8.25
2022-10-17T21:06:42.909Z,7.50
2022-10-17T21:09:09.831Z,7.47
2022-10-17T21:11:36.606Z,8.18
2022-10-17T21:14:07.020Z,8.10
2022-10-17T21:16:37.358Z,7.15
2022-10-17T21:19:05.699Z,7.30
2022-10-17T21:21:37.084Z,7.38
2022-10-17T21:24:08.935Z,7.60
2022-10-17T21:26:37.520Z,7.57
2022-10-17T21:29:06.257Z,8.70
2022-10-17T21:31:44.391Z,10.52
2022-10-17T21:34:18.564Z,10.57
2022-10-17T21:36:45.488Z,10.93
2022-10-17T21:39:13.956Z,11.10
2022-10-17T21:41:41.830Z,10.10
2022-10-17T21:44:17.548Z,8.88
2022-10-17T21:46:45.753Z,9.00
2022-10-17T21:49:16.182Z,9.02
2022-10-17T21:51:44.589Z,9.40
2022-10-17T21:54:11.920Z,9.25
2022-10-17T21:56:38.971Z,9.35
2022-10-17T21:59:06.456Z,9.70
2022-10-17T22:01:38.098Z,9.90
2022-10-17T22:04:10.629Z,8.68
2022-10-17T22:06:41.009Z,8.05
2022-10-17T22:09:21.479Z,9.05
2022-10-17T22:11:52.033Z,9.20
2022-10-17T22:14:21.629Z,9.38
2022-10-17T22:16:49.353Z,9.40
2022-10-17T22:19:21.573Z,9.18
2022-10-17T22:21:48.805Z,9.25
2022-10-17T22:24:19.243Z,9.80
2022-10-17T22:26:47.256Z,9.45
2022-10-17T22:29:14.771Z,10.02
2022-10-17T22:31:41.914Z,9.80
2022-10-17T22:34:11.987Z,10.40
2022-10-17T22:36:38.859Z,10.63
2022-10-17T22:39:05.849Z,10.23
2022-10-17T22:41:32.839Z,10.43
2022-10-17T22:43:59.744Z,10.45
2022-10-17T22:46:26.913Z,9.82
2022-10-17T22:48:53.890Z,9.15
2022-10-17T22:51:20.661Z,9.85
2022-10-17T22:53:47.420Z,10.07
2022-10-17T22:56:20.627Z,10.65
2022-10-17T22:58:47.828Z,10.10
2022-10-17T23:01:20.490Z,10.95
2022-10-17T23:03:47.866Z,9.70
2022-10-17T23:06:14.817Z,10.95
2022-10-17T23:08:42.223Z,9.82
2022-10-17T23:11:10.049Z,10.50
2022-10-17T23:13:37.555Z,9.77
2022-10-17T23:16:04.785Z,11.25
2022-10-17T23:21:03.622Z,10.77
2022-10-17T23:23:30.401Z,11.77
2022-10-17T23:26:13.950Z,10.75
2022-10-17T23:28:42.703Z,10.23
2022-10-17T23:31:21.861Z,10.85
2022-10-17T23:33:49.779Z,10.93
2022-10-17T23:36:19.342Z,11.20
2022-10-17T23:38:47.764Z,10.43
2022-10-17T23:41:15.191Z,11.05
2022-10-17T23:43:42.430Z,11.27
2022-10-17T23:46:10.228Z,9.68
2022-10-17T23:48:38.636Z,9.98
2022-10-17T23:51:07.093Z,11.35
2022-10-17T23:53:34.296Z,10.45
2022-10-17T23:56:01.027Z,10.80
2022-10-17T23:58:28.011Z,10.20
